sensor_id;sensor_type;location;lat;lon;timestamp;temperature;humidity
7014;DHT22;3547;50.774;12.918;2023-03-01T00:01:06;-4.80;99.90
7014;DHT22;3547;50.774;12.918;2023-03-01T00:03:32;-4.90;99.90
7014;DHT22;3547;50.774;12.918;2023-03-01T00:09:21;-4.90;99.90
7014;DHT22;3547;50.774;12.918;2023-03-01T00:11:48;-4.90;99.90
7014;DHT22;3547;50.774;12.918;2023-03-01T00:14:14;-4.90;99.90
7014;DHT22;3547;50.774;12.918;2023-03-01T00:16:43;-5.10;99.90
7014;DHT22;3547;50.774;12.918;2023-03-01T00:19:13;-5.10;99.90
7014;DHT22;3547;50.774;12.918;2023-03-01T00:21:40;-5.20;99.90
7014;DHT22;3547;50.774;12.918;2023-03-01T00:24:06;-5.30;99.90
7014;DHT22;3547;50.774;12.918;2023-03-01T00:26:32;-5.30;99.90
7014;DHT22;3547;50.774;12.918;2023-03-01T00:28:59;-5.30;99.90
7014;DHT22;3547;50.774;12.918;2023-03-01T00:31:27;-5.30;99.90
7014;DHT22;3547;50.774;12.918;2023-03-01T00:33:57;-5.40;99.90
7014;DHT22;3547;50.774;12.918;2023-03-01T00:36:26;-5.40;99.90
7014;DHT22;3547;50.774;12.918;2023-03-01T00:38:53;-5.40;99.90
7014;DHT22;3547;50.774;12.918;2023-03-01T00:41:20;-5.50;99.90
7014;DHT22;3547;50.774;12.918;2023-03-01T00:43:49;-5.50;99.90
7014;DHT22;3547;50.774;12.918;2023-03-01T00:46:18;-5.50;99.90
7014;DHT22;3547;50.774;12.918;2023-03-01T00:48:45;-5.50;99.90
7014;DHT22;3547;50.774;12.918;2023-03-01T00:53:39;-5.70;99.90
7014;DHT22;3547;50.774;12.918;2023-03-01T00:56:07;-5.60;99.90
7014;DHT22;3547;50.774;12.918;2023-03-01T00:58:34;-5.60;99.90
7014;DHT22;3547;50.774;12.918;2023-03-01T01:01:06;-5.60;99.90
7014;DHT22;3547;50.774;12.918;2023-03-01T01:03:32;-5.70;99.90
7014;DHT22;3547;50.774;12.918;2023-03-01T01:05:59;-5.70;99.90
7014;DHT22;3547;50.774;12.918;2023-03-01T01:08:35;-5.70;99.90
7014;DHT22;3547;50.774;12.918;2023-03-01T01:11:01;-5.70;99.90
7014;DHT22;3547;50.774;12.918;2023-03-01T01:13:27;-5.70;99.90
7014;DHT22;3547;50.774;12.918;2023-03-01T01:15:53;-5.80;99.90
7014;DHT22;3547;50.774;12.918;2023-03-01T01:18:19;-5.90;99.90
7014;DHT22;3547;50.774;12.918;2023-03-01T01:20:45;-5.90;99.90
7014;DHT22;3547;50.774;12.918;2023-03-01T01:23:11;-5.90;99.90
7014;DHT22;3547;50.774;12.918;2023-03-01T01:25:37;-5.90;99.90
7014;DHT22;3547;50.774;12.918;2023-03-01T01:28:03;-5.90;99.90
7014;DHT22;3547;50.774;12.918;2023-03-01T01:30:30;-6.00;99.90
7014;DHT22;3547;50.774;12.918;2023-03-01T01:32:56;-6.00;99.90
7014;DHT22;3547;50.774;12.918;2023-03-01T01:38:44;-6.00;99.90
7014;DHT22;3547;50.774;12.918;2023-03-01T01:41:11;-6.00;99.90
7014;DHT22;3547;50.774;12.918;2023-03-01T01:43:49;-6.10;99.90
7014;DHT22;3547;50.774;12.918;2023-03-01T01:46:29;-6.10;99.90
7014;DHT22;3547;50.774;12.918;2023-03-01T01:51:28;-6.10;99.90
7014;DHT22;3547;50.774;12.918;2023-03-01T01:53:58;-6.20;99.90
7014;DHT22;3547;50.774;12.918;2023-03-01T01:56:27;-6.30;99.90
7014;DHT22;3547;50.774;12.918;2023-03-01T01:58:55;-6.40;99.90
7014;DHT22;3547;50.774;12.918;2023-03-01T02:01:21;-6.40;99.90
7014;DHT22;3547;50.774;12.918;2023-03-01T02:03:48;-6.40;99.90
7014;DHT22;3547;50.774;12.918;2023-03-01T02:06:33;-6.40;99.90
7014;DHT22;3547;50.774;12.918;2023-03-01T02:09:08;-6.40;99.90
7014;DHT22;3547;50.774;12.918;2023-03-01T02:11:37;-6.40;99.90
7014;DHT22;3547;50.774;12.918;2023-03-01T02:14:04;-6.40;99.90
7014;DHT22;3547;50.774;12.918;2023-03-01T02:16:31;-6.50;99.90
7014;DHT22;3547;50.774;12.918;2023-03-01T02:18:58;-6.40;99.90
7014;DHT22;3547;50.774;12.918;2023-03-01T02:22:00;-6.50;99.90
7014;DHT22;3547;50.774;12.918;2023-03-01T02:27:03;-6.50;99.90
7014;DHT22;3547;50.774;12.918;2023-03-01T02:29:29;-6.60;99.90
7014;DHT22;3547;50.774;12.918;2023-03-01T02:31:59;-6.50;99.90
7014;DHT22;3547;50.774;12.918;2023-03-01T02:34:26;-6.60;99.90
7014;DHT22;3547;50.774;12.918;2023-03-01T02:37:03;-6.60;99.90
7014;DHT22;3547;50.774;12.918;2023-03-01T02:39:33;-6.60;99.90
7014;DHT22;3547;50.774;12.918;2023-03-01T02:42:03;-6.70;99.90
7014;DHT22;3547;50.774;12.918;2023-03-01T02:44:30;-6.80;99.90
7014;DHT22;3547;50.774;12.918;2023-03-01T02:46:56;-6.90;99.90
7014;DHT22;3547;50.774;12.918;2023-03-01T02:49:28;-6.80;99.90
7014;DHT22;3547;50.774;12.918;2023-03-01T02:55:13;-6.80;99.90
7014;DHT22;3547;50.774;12.918;2023-03-01T02:57:42;-6.80;99.90
7014;DHT22;3547;50.774;12.918;2023-03-01T03:00:15;-6.90;99.90
7014;DHT22;3547;50.774;12.918;2023-03-01T03:02:49;-7.00;99.90
7014;DHT22;3547;50.774;12.918;2023-03-01T03:05:22;-7.00;99.90
7014;DHT22;3547;50.774;12.918;2023-03-01T03:07:50;-7.00;99.90
7014;DHT22;3547;50.774;12.918;2023-03-01T03:10:24;-7.00;99.90
7014;DHT22;3547;50.774;12.918;2023-03-01T03:12:56;-6.90;99.90
7014;DHT22;3547;50.774;12.918;2023-03-01T03:15:23;-6.90;99.90
7014;DHT22;3547;50.774;12.918;2023-03-01T03:17:50;-6.90;99.90
7014;DHT22;3547;50.774;12.918;2023-03-01T03:20:20;-7.00;99.90
7014;DHT22;3547;50.774;12.918;2023-03-01T03:22:48;-6.90;99.90
7014;DHT22;3547;50.774;12.918;2023-03-01T03:25:15;-7.00;99.90
7014;DHT22;3547;50.774;12.918;2023-03-01T03:27:43;-7.00;99.90
7014;DHT22;3547;50.774;12.918;2023-03-01T03:30:12;-6.90;99.90
7014;DHT22;3547;50.774;12.918;2023-03-01T03:32:41;-6.90;99.90
7014;DHT22;3547;50.774;12.918;2023-03-01T03:35:09;-6.90;99.90
7014;DHT22;3547;50.774;12.918;2023-03-01T03:37:37;-6.90;99.90
7014;DHT22;3547;50.774;12.918;2023-03-01T03:40:22;-6.90;99.90
7014;DHT22;3547;50.774;12.918;2023-03-01T03:42:48;-6.90;99.90
7014;DHT22;3547;50.774;12.918;2023-03-01T03:45:15;-6.90;99.90
7014;DHT22;3547;50.774;12.918;2023-03-01T03:47:42;-7.00;99.90
7014;DHT22;3547;50.774;12.918;2023-03-01T03:50:10;-6.90;99.90
7014;DHT22;3547;50.774;12.918;2023-03-01T03:52:36;-6.90;99.90
7014;DHT22;3547;50.774;12.918;2023-03-01T03:55:03;-7.00;99.90
7014;DHT22;3547;50.774;12.918;2023-03-01T03:57:29;-7.00;99.90
7014;DHT22;3547;50.774;12.918;2023-03-01T03:59:55;-7.00;99.90
7014;DHT22;3547;50.774;12.918;2023-03-01T04:02:21;-7.00;99.90
7014;DHT22;3547;50.774;12.918;2023-03-01T04:04:48;-7.00;99.90
7014;DHT22;3547;50.774;12.918;2023-03-01T04:07:17;-7.10;99.90
7014;DHT22;3547;50.774;12.918;2023-03-01T04:09:43;-7.10;99.90
7014;DHT22;3547;50.774;12.918;2023-03-01T04:12:10;-7.00;99.90
7014;DHT22;3547;50.774;12.918;2023-03-01T04:14:36;-7.00;99.90
7014;DHT22;3547;50.774;12.918;2023-03-01T04:17:03;-7.00;99.90
7014;DHT22;3547;50.774;12.918;2023-03-01T04:19:31;-7.00;99.90
7014;DHT22;3547;50.774;12.918;2023-03-01T04:22:02;-7.00;99.90
7014;DHT22;3547;50.774;12.918;2023-03-01T04:24:35;-7.00;99.90
7014;DHT22;3547;50.774;12.918;2023-03-01T04:27:02;-7.00;99.90
7014;DHT22;3547;50.774;12.918;2023-03-01T04:29:28;-7.00;99.90
7014;DHT22;3547;50.774;12.918;2023-03-01T04:31:54;-6.90;99.90
7014;DHT22;3547;50.774;12.918;2023-03-01T04:34:20;-6.90;99.90
7014;DHT22;3547;50.774;12.918;2023-03-01T04:37:11;-6.90;99.90
7014;DHT22;3547;50.774;12.918;2023-03-01T04:43:04;-7.00;99.90
7014;DHT22;3547;50.774;12.918;2023-03-01T04:48:55;-7.00;99.90
7014;DHT22;3547;50.774;12.918;2023-03-01T04:51:21;-7.00;99.90
7014;DHT22;3547;50.774;12.918;2023-03-01T04:53:47;-7.10;99.90
7014;DHT22;3547;50.774;12.918;2023-03-01T04:56:14;-7.10;99.90
7014;DHT22;3547;50.774;12.918;2023-03-01T04:58:41;-7.10;99.90
7014;DHT22;3547;50.774;12.918;2023-03-01T05:01:13;-7.20;99.90
7014;DHT22;3547;50.774;12.918;2023-03-01T05:03:50;-7.20;99.90
7014;DHT22;3547;50.774;12.918;2023-03-01T05:06:17;-7.20;99.90
7014;DHT22;3547;50.774;12.918;2023-03-01T05:08:44;-7.20;99.90
7014;DHT22;3547;50.774;12.918;2023-03-01T05:11:11;-7.20;99.90
7014;DHT22;3547;50.774;12.918;2023-03-01T05:13:38;-7.20;99.90
7014;DHT22;3547;50.774;12.918;2023-03-01T05:16:06;-7.20;99.90
7014;DHT22;3547;50.774;12.918;2023-03-01T05:18:35;-7.20;99.90
7014;DHT22;3547;50.774;12.918;2023-03-01T05:21:07;-7.20;99.90
7014;DHT22;3547;50.774;12.918;2023-03-01T05:23:34;-7.20;99.90
7014;DHT22;3547;50.774;12.918;2023-03-01T05:26:01;-7.10;99.90
7014;DHT22;3547;50.774;12.918;2023-03-01T05:28:30;-7.10;99.90
7014;DHT22;3547;50.774;12.918;2023-03-01T05:30:57;-7.10;99.90
7014;DHT22;3547;50.774;12.918;2023-03-01T05:33:24;-7.10;99.90
7014;DHT22;3547;50.774;12.918;2023-03-01T05:35:51;-7.10;99.90
7014;DHT22;3547;50.774;12.918;2023-03-01T05:38:20;-7.10;99.90
7014;DHT22;3547;50.774;12.918;2023-03-01T05:40:47;-7.20;99.90
7014;DHT22;3547;50.774;12.918;2023-03-01T05:43:15;-7.20;99.90
7014;DHT22;3547;50.774;12.918;2023-03-01T05:45:42;-7.20;99.90
7014;DHT22;3547;50.774;12.918;2023-03-01T05:48:09;-7.20;99.90
7014;DHT22;3547;50.774;12.918;2023-03-01T05:50:41;-7.20;99.90
7014;DHT22;3547;50.774;12.918;2023-03-01T05:53:16;-7.30;99.90
7014;DHT22;3547;50.774;12.918;2023-03-01T05:55:43;-7.30;99.90
7014;DHT22;3547;50.774;12.918;2023-03-01T05:58:12;-7.20;99.90
7014;DHT22;3547;50.774;12.918;2023-03-01T06:00:40;-7.20;99.90
7014;DHT22;3547;50.774;12.918;2023-03-01T06:03:06;-7.30;99.90
7014;DHT22;3547;50.774;12.918;2023-03-01T06:05:34;-7.30;99.90
7014;DHT22;3547;50.774;12.918;2023-03-01T06:08:02;-7.30;99.90
7014;DHT22;3547;50.774;12.918;2023-03-01T06:10:29;-7.20;99.90
7014;DHT22;3547;50.774;12.918;2023-03-01T06:12:55;-7.20;99.90
7014;DHT22;3547;50.774;12.918;2023-03-01T06:15:22;-7.30;99.90
7014;DHT22;3547;50.774;12.918;2023-03-01T06:17:48;-7.20;99.90
7014;DHT22;3547;50.774;12.918;2023-03-01T06:20:25;-7.20;99.90
7014;DHT22;3547;50.774;12.918;2023-03-01T06:22:51;-7.20;99.90
7014;DHT22;3547;50.774;12.918;2023-03-01T06:25:20;-7.20;99.90
7014;DHT22;3547;50.774;12.918;2023-03-01T06:27:47;-7.20;99.90
7014;DHT22;3547;50.774;12.918;2023-03-01T06:30:16;-7.10;99.90
7014;DHT22;3547;50.774;12.918;2023-03-01T06:32:43;-7.20;99.90
7014;DHT22;3547;50.774;12.918;2023-03-01T06:35:11;-7.10;99.90
7014;DHT22;3547;50.774;12.918;2023-03-01T06:37:37;-7.10;99.90
7014;DHT22;3547;50.774;12.918;2023-03-01T06:40:04;-7.00;99.90
7014;DHT22;3547;50.774;12.918;2023-03-01T06:42:38;-7.00;99.90
7014;DHT22;3547;50.774;12.918;2023-03-01T06:45:06;-6.90;99.90
7014;DHT22;3547;50.774;12.918;2023-03-01T06:47:33;-6.80;99.90
7014;DHT22;3547;50.774;12.918;2023-03-01T06:50:00;-6.80;99.90
7014;DHT22;3547;50.774;12.918;2023-03-01T06:52:26;-6.70;99.90
7014;DHT22;3547;50.774;12.918;2023-03-01T06:54:52;-6.60;99.90
7014;DHT22;3547;50.774;12.918;2023-03-01T06:57:18;-6.50;99.90
7014;DHT22;3547;50.774;12.918;2023-03-01T06:59:44;-6.50;99.90
7014;DHT22;3547;50.774;12.918;2023-03-01T07:02:12;-6.40;99.90
7014;DHT22;3547;50.774;12.918;2023-03-01T07:04:39;-6.30;99.90
7014;DHT22;3547;50.774;12.918;2023-03-01T07:07:05;-6.20;99.90
7014;DHT22;3547;50.774;12.918;2023-03-01T07:09:31;-6.10;99.90
7014;DHT22;3547;50.774;12.918;2023-03-01T07:11:58;-6.00;99.90
7014;DHT22;3547;50.774;12.918;2023-03-01T07:14:24;-6.00;99.90
7014;DHT22;3547;50.774;12.918;2023-03-01T07:16:52;-5.90;99.90
7014;DHT22;3547;50.774;12.918;2023-03-01T07:19:19;-5.80;99.90
7014;DHT22;3547;50.774;12.918;2023-03-01T07:21:46;-5.70;99.90
7014;DHT22;3547;50.774;12.918;2023-03-01T07:24:12;-5.60;99.90
7014;DHT22;3547;50.774;12.918;2023-03-01T07:26:39;-5.50;99.90
7014;DHT22;3547;50.774;12.918;2023-03-01T07:29:07;-5.40;99.90
7014;DHT22;3547;50.774;12.918;2023-03-01T07:31:33;-5.30;99.90
7014;DHT22;3547;50.774;12.918;2023-03-01T07:33:59;-5.20;99.90
7014;DHT22;3547;50.774;12.918;2023-03-01T07:36:26;-5.10;99.90
7014;DHT22;3547;50.774;12.918;2023-03-01T07:38:52;-5.00;99.90
7014;DHT22;3547;50.774;12.918;2023-03-01T07:41:18;-4.90;99.90
7014;DHT22;3547;50.774;12.918;2023-03-01T07:43:44;-4.80;99.90
7014;DHT22;3547;50.774;12.918;2023-03-01T07:46:10;-4.70;99.90
7014;DHT22;3547;50.774;12.918;2023-03-01T07:48:37;-4.60;1.00
7014;DHT22;3547;50.774;12.918;2023-03-01T07:51:04;-4.50;99.90
7014;DHT22;3547;50.774;12.918;2023-03-01T07:53:32;-4.40;99.90
7014;DHT22;3547;50.774;12.918;2023-03-01T07:56:07;-4.20;99.90
7014;DHT22;3547;50.774;12.918;2023-03-01T07:58:41;-4.10;1.00
7014;DHT22;3547;50.774;12.918;2023-03-01T08:01:11;-4.00;1.00
7014;DHT22;3547;50.774;12.918;2023-03-01T08:03:37;-3.80;1.00
7014;DHT22;3547;50.774;12.918;2023-03-01T08:06:05;-3.70;1.00
7014;DHT22;3547;50.774;12.918;2023-03-01T08:08:33;-3.60;1.00
7014;DHT22;3547;50.774;12.918;2023-03-01T08:11:02;-3.50;1.00
7014;DHT22;3547;50.774;12.918;2023-03-01T08:13:29;-3.40;1.00
7014;DHT22;3547;50.774;12.918;2023-03-01T08:16:04;-3.20;1.00
7014;DHT22;3547;50.774;12.918;2023-03-01T08:18:31;-3.10;1.00
7014;DHT22;3547;50.774;12.918;2023-03-01T08:21:09;-3.00;1.00
7014;DHT22;3547;50.774;12.918;2023-03-01T08:23:35;-2.80;1.00
7014;DHT22;3547;50.774;12.918;2023-03-01T08:26:16;-2.70;1.00
7014;DHT22;3547;50.774;12.918;2023-03-01T08:28:43;-2.60;1.00
7014;DHT22;3547;50.774;12.918;2023-03-01T08:31:22;-2.50;1.00
7014;DHT22;3547;50.774;12.918;2023-03-01T08:33:51;-2.50;99.90
7014;DHT22;3547;50.774;12.918;2023-03-01T08:36:24;-2.40;99.90
7014;DHT22;3547;50.774;12.918;2023-03-01T08:38:52;-2.20;1.00
7014;DHT22;3547;50.774;12.918;2023-03-01T08:41:18;-2.10;1.00
7014;DHT22;3547;50.774;12.918;2023-03-01T08:43:45;-2.00;1.00
7014;DHT22;3547;50.774;12.918;2023-03-01T08:46:11;-1.80;1.00
7014;DHT22;3547;50.774;12.918;2023-03-01T08:48:38;-1.70;1.00
7014;DHT22;3547;50.774;12.918;2023-03-01T08:51:17;-1.70;1.00
7014;DHT22;3547;50.774;12.918;2023-03-01T08:53:44;-1.60;99.90
7014;DHT22;3547;50.774;12.918;2023-03-01T08:56:11;-1.50;1.00
7014;DHT22;3547;50.774;12.918;2023-03-01T08:58:37;-1.40;99.90
7014;DHT22;3547;50.774;12.918;2023-03-01T09:01:09;-1.20;99.90
7014;DHT22;3547;50.774;12.918;2023-03-01T09:03:36;-1.10;1.00
7014;DHT22;3547;50.774;12.918;2023-03-01T09:06:03;-1.00;1.00
7014;DHT22;3547;50.774;12.918;2023-03-01T09:08:30;-0.90;99.90
7014;DHT22;3547;50.774;12.918;2023-03-01T09:10:56;-0.70;1.00
7014;DHT22;3547;50.774;12.918;2023-03-01T09:13:23;-0.50;1.00
7014;DHT22;3547;50.774;12.918;2023-03-01T09:15:53;-0.40;99.90
7014;DHT22;3547;50.774;12.918;2023-03-01T09:18:19;-0.20;1.00
7014;DHT22;3547;50.774;12.918;2023-03-01T09:20:45;0.00;99.90
7014;DHT22;3547;50.774;12.918;2023-03-01T09:23:11;0.20;1.00
7014;DHT22;3547;50.774;12.918;2023-03-01T09:29:00;0.50;1.00
7014;DHT22;3547;50.774;12.918;2023-03-01T09:31:26;0.60;1.00
7014;DHT22;3547;50.774;12.918;2023-03-01T09:33:53;0.70;1.00
7014;DHT22;3547;50.774;12.918;2023-03-01T09:36:22;0.90;1.00
7014;DHT22;3547;50.774;12.918;2023-03-01T09:38:49;1.00;1.00
7014;DHT22;3547;50.774;12.918;2023-03-01T09:41:22;1.20;1.00
7014;DHT22;3547;50.774;12.918;2023-03-01T09:43:52;1.30;1.00
7014;DHT22;3547;50.774;12.918;2023-03-01T09:46:22;1.40;1.00
7014;DHT22;3547;50.774;12.918;2023-03-01T09:48:56;1.60;1.00
7014;DHT22;3547;50.774;12.918;2023-03-01T09:51:29;1.70;1.00
7014;DHT22;3547;50.774;12.918;2023-03-01T09:53:56;1.90;1.00
7014;DHT22;3547;50.774;12.918;2023-03-01T09:56:27;1.90;1.00
7014;DHT22;3547;50.774;12.918;2023-03-01T10:01:33;2.10;1.00
7014;DHT22;3547;50.774;12.918;2023-03-01T10:04:31;2.10;99.90
7014;DHT22;3547;50.774;12.918;2023-03-01T10:09:40;2.30;99.90
7014;DHT22;3547;50.774;12.918;2023-03-01T10:12:16;2.20;99.90
7014;DHT22;3547;50.774;12.918;2023-03-01T10:15:07;2.40;1.00
7014;DHT22;3547;50.774;12.918;2023-03-01T10:17:53;2.40;99.90
7014;DHT22;3547;50.774;12.918;2023-03-01T10:20:24;2.60;99.90
7014;DHT22;3547;50.774;12.918;2023-03-01T10:22:51;2.60;99.90
7014;DHT22;3547;50.774;12.918;2023-03-01T10:28:53;2.40;99.90
7014;DHT22;3547;50.774;12.918;2023-03-01T10:31:27;2.30;99.90
7014;DHT22;3547;50.774;12.918;2023-03-01T10:34:08;2.60;1.00
7014;DHT22;3547;50.774;12.918;2023-03-01T10:36:38;2.80;99.90
7014;DHT22;3547;50.774;12.918;2023-03-01T10:39:18;3.00;1.00
7014;DHT22;3547;50.774;12.918;2023-03-01T10:42:05;3.10;99.90
7014;DHT22;3547;50.774;12.918;2023-03-01T10:44:45;3.10;99.90
7014;DHT22;3547;50.774;12.918;2023-03-01T10:50:06;3.40;99.90
7014;DHT22;3547;50.774;12.918;2023-03-01T10:52:57;3.40;99.90
7014;DHT22;3547;50.774;12.918;2023-03-01T10:59:01;3.50;99.90
7014;DHT22;3547;50.774;12.918;2023-03-01T11:01:33;3.60;99.90
7014;DHT22;3547;50.774;12.918;2023-03-01T11:06:36;4.00;1.00
7014;DHT22;3547;50.774;12.918;2023-03-01T11:09:33;4.20;99.90
7014;DHT22;3547;50.774;12.918;2023-03-01T11:12:11;4.40;1.00
7014;DHT22;3547;50.774;12.918;2023-03-01T11:14:50;4.50;1.00
7014;DHT22;3547;50.774;12.918;2023-03-01T11:17:36;4.70;1.00
7014;DHT22;3547;50.774;12.918;2023-03-01T11:22:48;4.80;99.90
7014;DHT22;3547;50.774;12.918;2023-03-01T11:25:17;4.90;1.00
7014;DHT22;3547;50.774;12.918;2023-03-01T11:27:45;5.10;1.00
7014;DHT22;3547;50.774;12.918;2023-03-01T11:32:59;5.40;1.00
7014;DHT22;3547;50.774;12.918;2023-03-01T11:35:29;5.60;1.00
7014;DHT22;3547;50.774;12.918;2023-03-01T11:38:11;5.60;1.00
7014;DHT22;3547;50.774;12.918;2023-03-01T11:40:47;5.80;1.00
7014;DHT22;3547;50.774;12.918;2023-03-01T11:43:37;5.90;99.90
7014;DHT22;3547;50.774;12.918;2023-03-01T11:49:00;6.00;99.90
7014;DHT22;3547;50.774;12.918;2023-03-01T11:57:20;6.70;1.00
7014;DHT22;3547;50.774;12.918;2023-03-01T12:00:02;6.80;1.00
7014;DHT22;3547;50.774;12.918;2023-03-01T12:02:40;6.50;99.90
7014;DHT22;3547;50.774;12.918;2023-03-01T12:10:49;6.80;99.90
7014;DHT22;3547;50.774;12.918;2023-03-01T12:19:14;7.40;1.00
7014;DHT22;3547;50.774;12.918;2023-03-01T12:25:06;7.50;99.90
7014;DHT22;3547;50.774;12.918;2023-03-01T12:27:48;7.40;1.00
7014;DHT22;3547;50.774;12.918;2023-03-01T12:36:04;7.30;1.00
7014;DHT22;3547;50.774;12.918;2023-03-01T12:38:49;7.20;99.90
7014;DHT22;3547;50.774;12.918;2023-03-01T12:49:30;6.80;1.00
7014;DHT22;3547;50.774;12.918;2023-03-01T12:52:22;6.60;1.00
7014;DHT22;3547;50.774;12.918;2023-03-01T12:54:51;6.50;99.90
7014;DHT22;3547;50.774;12.918;2023-03-01T12:57:34;6.30;99.90
7014;DHT22;3547;50.774;12.918;2023-03-01T13:00:31;6.60;1.00
7014;DHT22;3547;50.774;12.918;2023-03-01T13:02:59;6.50;1.00
7014;DHT22;3547;50.774;12.918;2023-03-01T13:08:36;6.40;1.00
7014;DHT22;3547;50.774;12.918;2023-03-01T13:11:06;6.60;1.00
7014;DHT22;3547;50.774;12.918;2023-03-01T13:13:37;6.60;1.00
7014;DHT22;3547;50.774;12.918;2023-03-01T13:19:27;6.60;1.00
7014;DHT22;3547;50.774;12.918;2023-03-01T13:22:25;6.30;1.00
7014;DHT22;3547;50.774;12.918;2023-03-01T13:25:03;6.30;1.00
7014;DHT22;3547;50.774;12.918;2023-03-01T13:27:37;6.20;1.00
7014;DHT22;3547;50.774;12.918;2023-03-01T13:30:04;6.20;1.00
7014;DHT22;3547;50.774;12.918;2023-03-01T13:32:33;6.20;1.00
7014;DHT22;3547;50.774;12.918;2023-03-01T13:37:52;6.20;1.00
7014;DHT22;3547;50.774;12.918;2023-03-01T13:42:52;6.20;1.00
7014;DHT22;3547;50.774;12.918;2023-03-01T13:45:20;6.20;1.00
7014;DHT22;3547;50.774;12.918;2023-03-01T13:47:50;6.20;1.00
7014;DHT22;3547;50.774;12.918;2023-03-01T13:50:21;6.30;1.00
7014;DHT22;3547;50.774;12.918;2023-03-01T13:53:01;6.30;1.00
7014;DHT22;3547;50.774;12.918;2023-03-01T13:55:49;6.30;1.00
7014;DHT22;3547;50.774;12.918;2023-03-01T13:58:24;6.50;1.00
7014;DHT22;3547;50.774;12.918;2023-03-01T14:01:05;6.50;1.00
7014;DHT22;3547;50.774;12.918;2023-03-01T14:03:34;6.30;1.00
7014;DHT22;3547;50.774;12.918;2023-03-01T14:06:08;6.30;1.00
7014;DHT22;3547;50.774;12.918;2023-03-01T14:08:36;6.40;1.00
7014;DHT22;3547;50.774;12.918;2023-03-01T14:21:42;6.40;1.00
7014;DHT22;3547;50.774;12.918;2023-03-01T14:24:20;6.30;1.00
7014;DHT22;3547;50.774;12.918;2023-03-01T14:26:48;6.30;1.00
7014;DHT22;3547;50.774;12.918;2023-03-01T14:29:37;6.20;1.00
7014;DHT22;3547;50.774;12.918;2023-03-01T14:32:20;6.20;1.00
7014;DHT22;3547;50.774;12.918;2023-03-01T14:34:50;6.30;1.00
7014;DHT22;3547;50.774;12.918;2023-03-01T14:39:49;6.30;1.00
7014;DHT22;3547;50.774;12.918;2023-03-01T14:42:16;6.20;1.00
7014;DHT22;3547;50.774;12.918;2023-03-01T14:44:43;6.10;1.00
7014;DHT22;3547;50.774;12.918;2023-03-01T14:47:22;5.90;99.90
7014;DHT22;3547;50.774;12.918;2023-03-01T14:53:02;5.80;99.90
7014;DHT22;3547;50.774;12.918;2023-03-01T14:55:37;5.60;99.90
7014;DHT22;3547;50.774;12.918;2023-03-01T14:58:12;5.60;99.90
7014;DHT22;3547;50.774;12.918;2023-03-01T15:00:48;5.60;99.90
7014;DHT22;3547;50.774;12.918;2023-03-01T15:03:41;5.40;99.90
7014;DHT22;3547;50.774;12.918;2023-03-01T15:06:07;5.30;99.90
7014;DHT22;3547;50.774;12.918;2023-03-01T15:08:35;5.30;99.90
7014;DHT22;3547;50.774;12.918;2023-03-01T15:13:34;5.30;99.90
7014;DHT22;3547;50.774;12.918;2023-03-01T15:18:29;5.40;99.90
7014;DHT22;3547;50.774;12.918;2023-03-01T15:21:04;5.50;99.90
7014;DHT22;3547;50.774;12.918;2023-03-01T15:23:31;5.60;99.90
7014;DHT22;3547;50.774;12.918;2023-03-01T15:25:57;5.90;1.00
7014;DHT22;3547;50.774;12.918;2023-03-01T15:28:30;6.10;1.00
7014;DHT22;3547;50.774;12.918;2023-03-01T15:31:05;6.40;99.90
7014;DHT22;3547;50.774;12.918;2023-03-01T15:33:38;6.50;1.00
7014;DHT22;3547;50.774;12.918;2023-03-01T15:38:57;6.80;99.90
7014;DHT22;3547;50.774;12.918;2023-03-01T15:41:32;6.90;99.90
7014;DHT22;3547;50.774;12.918;2023-03-01T15:46:51;7.40;99.90
7014;DHT22;3547;50.774;12.918;2023-03-01T15:49:39;7.90;99.90
7014;DHT22;3547;50.774;12.918;2023-03-01T15:52:11;8.50;99.90
7014;DHT22;3547;50.774;12.918;2023-03-01T15:54:39;9.10;99.90
7014;DHT22;3547;50.774;12.918;2023-03-01T15:57:12;9.60;1.00
7014;DHT22;3547;50.774;12.918;2023-03-01T15:59:41;9.50;99.90
7014;DHT22;3547;50.774;12.918;2023-03-01T16:02:10;9.20;99.90
7014;DHT22;3547;50.774;12.918;2023-03-01T16:04:39;8.70;99.90
7014;DHT22;3547;50.774;12.918;2023-03-01T16:07:05;8.40;99.90
7014;DHT22;3547;50.774;12.918;2023-03-01T16:09:31;8.10;99.90
7014;DHT22;3547;50.774;12.918;2023-03-01T16:11:58;7.90;99.90
7014;DHT22;3547;50.774;12.918;2023-03-01T16:14:24;7.20;99.90
7014;DHT22;3547;50.774;12.918;2023-03-01T16:16:50;6.40;99.90
7014;DHT22;3547;50.774;12.918;2023-03-01T16:19:16;5.90;99.90
7014;DHT22;3547;50.774;12.918;2023-03-01T16:21:43;5.50;99.90
7014;DHT22;3547;50.774;12.918;2023-03-01T16:24:15;5.00;99.90
7014;DHT22;3547;50.774;12.918;2023-03-01T16:26:41;4.60;99.90
7014;DHT22;3547;50.774;12.918;2023-03-01T16:29:08;4.20;99.90
7014;DHT22;3547;50.774;12.918;2023-03-01T16:31:34;3.80;99.90
7014;DHT22;3547;50.774;12.918;2023-03-01T16:34:00;3.50;99.90
7014;DHT22;3547;50.774;12.918;2023-03-01T16:36:27;3.40;99.90
7014;DHT22;3547;50.774;12.918;2023-03-01T16:38:58;3.20;99.90
7014;DHT22;3547;50.774;12.918;2023-03-01T16:41:25;3.00;99.90
7014;DHT22;3547;50.774;12.918;2023-03-01T16:43:51;2.80;99.90
7014;DHT22;3547;50.774;12.918;2023-03-01T16:46:23;2.70;99.90
7014;DHT22;3547;50.774;12.918;2023-03-01T16:48:49;2.60;99.90
7014;DHT22;3547;50.774;12.918;2023-03-01T16:51:16;2.50;99.90
7014;DHT22;3547;50.774;12.918;2023-03-01T16:53:42;2.30;99.90
7014;DHT22;3547;50.774;12.918;2023-03-01T16:56:10;2.30;99.90
7014;DHT22;3547;50.774;12.918;2023-03-01T16:58:37;2.20;99.90
7014;DHT22;3547;50.774;12.918;2023-03-01T17:01:09;2.10;99.90
7014;DHT22;3547;50.774;12.918;2023-03-01T17:03:37;1.90;99.90
7014;DHT22;3547;50.774;12.918;2023-03-01T17:06:15;1.80;99.90
7014;DHT22;3547;50.774;12.918;2023-03-01T17:08:41;1.70;99.90
7014;DHT22;3547;50.774;12.918;2023-03-01T17:11:10;1.60;99.90
7014;DHT22;3547;50.774;12.918;2023-03-01T17:13:38;1.50;99.90
7014;DHT22;3547;50.774;12.918;2023-03-01T17:16:10;1.40;99.90
7014;DHT22;3547;50.774;12.918;2023-03-01T17:18:36;1.40;99.90
7014;DHT22;3547;50.774;12.918;2023-03-01T17:21:04;1.30;99.90
7014;DHT22;3547;50.774;12.918;2023-03-01T17:23:31;1.20;99.90
7014;DHT22;3547;50.774;12.918;2023-03-01T17:25:58;1.20;99.90
7014;DHT22;3547;50.774;12.918;2023-03-01T17:28:28;1.10;99.90
7014;DHT22;3547;50.774;12.918;2023-03-01T17:30:55;1.00;99.90
7014;DHT22;3547;50.774;12.918;2023-03-01T17:33:21;1.00;99.90
7014;DHT22;3547;50.774;12.918;2023-03-01T17:35:49;0.90;99.90
7014;DHT22;3547;50.774;12.918;2023-03-01T17:38:16;0.80;99.90
7014;DHT22;3547;50.774;12.918;2023-03-01T17:40:43;0.70;99.90
7014;DHT22;3547;50.774;12.918;2023-03-01T17:43:14;0.70;99.90
7014;DHT22;3547;50.774;12.918;2023-03-01T17:45:41;0.60;99.90
7014;DHT22;3547;50.774;12.918;2023-03-01T17:48:14;0.50;99.90
7014;DHT22;3547;50.774;12.918;2023-03-01T17:50:41;0.40;99.90
7014;DHT22;3547;50.774;12.918;2023-03-01T17:53:08;0.40;99.90
7014;DHT22;3547;50.774;12.918;2023-03-01T17:55:36;0.40;99.90
7014;DHT22;3547;50.774;12.918;2023-03-01T17:58:03;0.30;99.90
7014;DHT22;3547;50.774;12.918;2023-03-01T18:00:30;0.20;99.90
7014;DHT22;3547;50.774;12.918;2023-03-01T18:02:56;0.20;99.90
7014;DHT22;3547;50.774;12.918;2023-03-01T18:05:22;0.20;99.90
7014;DHT22;3547;50.774;12.918;2023-03-01T18:07:50;0.10;99.90
7014;DHT22;3547;50.774;12.918;2023-03-01T18:10:18;0.10;99.90
7014;DHT22;3547;50.774;12.918;2023-03-01T18:12:44;0.00;99.90
7014;DHT22;3547;50.774;12.918;2023-03-01T18:15:10;0.00;99.90
7014;DHT22;3547;50.774;12.918;2023-03-01T18:17:36;0.00;99.90
7014;DHT22;3547;50.774;12.918;2023-03-01T18:20:04;-0.10;99.90
7014;DHT22;3547;50.774;12.918;2023-03-01T18:22:31;-0.10;99.90